sensor_id;sensor_type;location;lat;lon;timestamp;P1;durP1;ratioP1;P2;durP2;ratioP2
51943;SDS011;37969;53.132;6.370;2024-03-23T00:55:38;47.95;;;8.10;;
51943;SDS011;37969;53.132;6.370;2024-03-23T00:58:04;49.50;;;9.15;;
51943;SDS011;37969;53.132;6.370;2024-03-23T01:00:31;44.80;;;8.15;;
51943;SDS011;37969;53.132;6.370;2024-03-23T01:02:58;38.58;;;7.93;;
51943;SDS011;37969;53.132;6.370;2024-03-23T01:05:24;52.88;;;8.20;;
51943;SDS011;37969;53.132;6.370;2024-03-23T01:07:50;52.03;;;9.13;;
51943;SDS011;37969;53.132;6.370;2024-03-23T01:10:21;48.75;;;8.23;;
51943;SDS011;37969;53.132;6.370;2024-03-23T01:12:48;44.35;;;9.63;;
51943;SDS011;37969;53.132;6.370;2024-03-23T01:15:15;53.83;;;10.13;;
51943;SDS011;37969;53.132;6.370;2024-03-23T01:17:41;38.58;;;7.68;;
51943;SDS011;37969;53.132;6.370;2024-03-23T01:20:07;50.30;;;9.38;;
51943;SDS011;37969;53.132;6.370;2024-03-23T01:22:36;45.95;;;8.75;;
51943;SDS011;37969;53.132;6.370;2024-03-23T01:25:07;47.17;;;9.20;;
51943;SDS011;37969;53.132;6.370;2024-03-23T01:27:34;44.03;;;7.70;;
51943;SDS011;37969;53.132;6.370;2024-03-23T01:30:00;43.97;;;8.00;;
51943;SDS011;37969;53.132;6.370;2024-03-23T01:32:27;48.05;;;8.32;;
51943;SDS011;37969;53.132;6.370;2024-03-23T01:34:55;47.88;;;8.90;;
51943;SDS011;37969;53.132;6.370;2024-03-23T01:37:21;47.70;;;9.05;;
51943;SDS011;37969;53.132;6.370;2024-03-23T01:39:48;48.10;;;8.48;;
51943;SDS011;37969;53.132;6.370;2024-03-23T01:42:16;48.20;;;8.52;;
51943;SDS011;37969;53.132;6.370;2024-03-23T01:44:43;48.97;;;8.23;;
51943;SDS011;37969;53.132;6.370;2024-03-23T01:47:10;50.88;;;9.07;;
51943;SDS011;37969;53.132;6.370;2024-03-23T01:49:41;57.58;;;8.95;;
51943;SDS011;37969;53.132;6.370;2024-03-23T01:52:10;37.53;;;8.52;;
51943;SDS011;37969;53.132;6.370;2024-03-23T01:54:37;39.80;;;7.30;;
51943;SDS011;37969;53.132;6.370;2024-03-23T01:57:04;54.28;;;8.82;;
51943;SDS011;37969;53.132;6.370;2024-03-23T01:59:32;53.07;;;8.70;;
51943;SDS011;37969;53.132;6.370;2024-03-23T02:02:01;56.00;;;9.43;;
51943;SDS011;37969;53.132;6.370;2024-03-23T02:04:28;45.70;;;8.68;;
51943;SDS011;37969;53.132;6.370;2024-03-23T02:06:54;44.85;;;9.35;;
51943;SDS011;37969;53.132;6.370;2024-03-23T02:09:22;43.58;;;9.35;;
51943;SDS011;37969;53.132;6.370;2024-03-23T02:11:48;48.10;;;8.63;;
51943;SDS011;37969;53.132;6.370;2024-03-23T02:14:16;42.63;;;10.02;;
51943;SDS011;37969;53.132;6.370;2024-03-23T02:16:43;44.95;;;9.50;;
51943;SDS011;37969;53.132;6.370;2024-03-23T02:19:12;36.42;;;7.75;;
51943;SDS011;37969;53.132;6.370;2024-03-23T02:21:40;47.72;;;9.27;;
51943;SDS011;37969;53.132;6.370;2024-03-23T02:24:06;41.17;;;7.72;;
51943;SDS011;37969;53.132;6.370;2024-03-23T02:26:38;33.47;;;7.05;;
51943;SDS011;37969;53.132;6.370;2024-03-23T02:29:07;42.38;;;7.85;;
51943;SDS011;37969;53.132;6.370;2024-03-23T02:31:34;46.95;;;8.13;;
51943;SDS011;37969;53.132;6.370;2024-03-23T02:34:05;41.00;;;7.60;;
51943;SDS011;37969;53.132;6.370;2024-03-23T02:36:32;42.90;;;8.40;;
51943;SDS011;37969;53.132;6.370;2024-03-23T02:38:59;40.78;;;8.10;;
51943;SDS011;37969;53.132;6.370;2024-03-23T02:41:25;28.95;;;6.80;;
51943;SDS011;37969;53.132;6.370;2024-03-23T02:43:52;38.60;;;7.78;;
51943;SDS011;37969;53.132;6.370;2024-03-23T02:46:18;35.83;;;7.38;;
51943;SDS011;37969;53.132;6.370;2024-03-23T02:48:44;42.45;;;7.18;;
51943;SDS011;37969;53.132;6.370;2024-03-23T02:51:11;39.25;;;7.55;;
51943;SDS011;37969;53.132;6.370;2024-03-23T02:53:38;35.55;;;7.65;;
51943;SDS011;37969;53.132;6.370;2024-03-23T02:56:07;44.13;;;8.07;;
51943;SDS011;37969;53.132;6.370;2024-03-23T02:58:38;42.03;;;7.00;;
51943;SDS011;37969;53.132;6.370;2024-03-23T03:01:07;44.28;;;6.63;;
51943;SDS011;37969;53.132;6.370;2024-03-23T03:03:33;44.13;;;7.38;;
51943;SDS011;37969;53.132;6.370;2024-03-23T03:06:00;31.38;;;6.30;;
51943;SDS011;37969;53.132;6.370;2024-03-23T03:08:27;34.85;;;6.30;;
51943;SDS011;37969;53.132;6.370;2024-03-23T03:10:55;41.00;;;7.10;;
51943;SDS011;37969;53.132;6.370;2024-03-23T03:13:22;37.75;;;6.88;;
51943;SDS011;37969;53.132;6.370;2024-03-23T03:15:51;43.08;;;6.68;;
51943;SDS011;37969;53.132;6.370;2024-03-23T03:18:19;42.92;;;7.25;;
51943;SDS011;37969;53.132;6.370;2024-03-23T03:20:46;30.65;;;6.65;;
51943;SDS011;37969;53.132;6.370;2024-03-23T03:23:14;32.13;;;5.97;;
51943;SDS011;37969;53.132;6.370;2024-03-23T03:25:44;43.20;;;7.53;;
51943;SDS011;37969;53.132;6.370;2024-03-23T03:28:10;30.80;;;6.60;;
51943;SDS011;37969;53.132;6.370;2024-03-23T03:30:38;25.58;;;6.22;;
51943;SDS011;37969;53.132;6.370;2024-03-23T03:33:05;33.05;;;6.93;;
51943;SDS011;37969;53.132;6.370;2024-03-23T03:35:31;35.70;;;6.13;;
51943;SDS011;37969;53.132;6.370;2024-03-23T03:37:58;33.70;;;6.43;;
51943;SDS011;37969;53.132;6.370;2024-03-23T03:40:24;37.95;;;6.40;;
51943;SDS011;37969;53.132;6.370;2024-03-23T03:42:51;31.45;;;5.30;;
51943;SDS011;37969;53.132;6.370;2024-03-23T03:45:20;33.43;;;7.07;;
51943;SDS011;37969;53.132;6.370;2024-03-23T03:47:46;37.63;;;6.50;;
51943;SDS011;37969;53.132;6.370;2024-03-23T03:50:12;33.65;;;6.35;;
51943;SDS011;37969;53.132;6.370;2024-03-23T03:52:40;27.63;;;5.43;;
51943;SDS011;37969;53.132;6.370;2024-03-23T03:55:12;29.20;;;5.82;;
51943;SDS011;37969;53.132;6.370;2024-03-23T03:57:38;29.90;;;5.03;;
51943;SDS011;37969;53.132;6.370;2024-03-23T04:00:07;21.30;;;4.60;;
51943;SDS011;37969;53.132;6.370;2024-03-23T04:02:37;33.30;;;5.60;;
51943;SDS011;37969;53.132;6.370;2024-03-23T04:05:05;30.55;;;5.43;;
51943;SDS011;37969;53.132;6.370;2024-03-23T04:07:31;30.73;;;5.18;;
51943;SDS011;37969;53.132;6.370;2024-03-23T04:09:57;29.48;;;5.18;;
51943;SDS011;37969;53.132;6.370;2024-03-23T04:12:24;25.77;;;5.13;;
51943;SDS011;37969;53.132;6.370;2024-03-23T04:14:50;25.65;;;4.88;;
51943;SDS011;37969;53.132;6.370;2024-03-23T04:17:18;27.92;;;5.80;;
51943;SDS011;37969;53.132;6.370;2024-03-23T04:19:46;26.95;;;4.47;;
51943;SDS011;37969;53.132;6.370;2024-03-23T04:22:15;23.47;;;5.17;;
51943;SDS011;37969;53.132;6.370;2024-03-23T04:24:41;35.10;;;4.88;;
51943;SDS011;37969;53.132;6.370;2024-03-23T04:27:08;25.98;;;5.28;;
51943;SDS011;37969;53.132;6.370;2024-03-23T04:29:35;28.48;;;4.75;;
51943;SDS011;37969;53.132;6.370;2024-03-23T04:32:02;24.52;;;4.57;;
51943;SDS011;37969;53.132;6.370;2024-03-23T04:34:30;26.15;;;4.22;;
51943;SDS011;37969;53.132;6.370;2024-03-23T04:36:58;29.95;;;4.88;;
51943;SDS011;37969;53.132;6.370;2024-03-23T04:39:25;27.77;;;4.78;;
51943;SDS011;37969;53.132;6.370;2024-03-23T04:41:53;30.98;;;5.50;;
51943;SDS011;37969;53.132;6.370;2024-03-23T04:44:20;30.08;;;5.10;;
51943;SDS011;37969;53.132;6.370;2024-03-23T04:46:49;24.83;;;6.25;;
51943;SDS011;37969;53.132;6.370;2024-03-23T04:49:16;27.30;;;5.20;;
51943;SDS011;37969;53.132;6.370;2024-03-23T04:51:43;32.92;;;5.07;;
51943;SDS011;37969;53.132;6.370;2024-03-23T04:54:12;33.00;;;5.45;;
51943;SDS011;37969;53.132;6.370;2024-03-23T04:56:39;30.10;;;4.70;;
51943;SDS011;37969;53.132;6.370;2024-03-23T04:59:08;27.07;;;4.63;;
51943;SDS011;37969;53.132;6.370;2024-03-23T05:01:34;32.45;;;4.63;;
51943;SDS011;37969;53.132;6.370;2024-03-23T05:04:03;20.97;;;4.13;;
51943;SDS011;37969;53.132;6.370;2024-03-23T05:06:31;26.60;;;4.53;;
51943;SDS011;37969;53.132;6.370;2024-03-23T05:08:59;27.67;;;4.53;;
51943;SDS011;37969;53.132;6.370;2024-03-23T05:11:37;28.23;;;4.20;;
51943;SDS011;37969;53.132;6.370;2024-03-23T05:14:04;27.48;;;5.18;;
51943;SDS011;37969;53.132;6.370;2024-03-23T05:16:33;37.88;;;5.85;;
51943;SDS011;37969;53.132;6.370;2024-03-23T05:19:02;41.28;;;4.75;;
51943;SDS011;37969;53.132;6.370;2024-03-23T05:21:28;35.17;;;4.85;;
51943;SDS011;37969;53.132;6.370;2024-03-23T05:23:55;41.95;;;5.13;;
51943;SDS011;37969;53.132;6.370;2024-03-23T05:26:22;27.77;;;4.22;;
51943;SDS011;37969;53.132;6.370;2024-03-23T05:28:48;28.20;;;5.18;;
51943;SDS011;37969;53.132;6.370;2024-03-23T05:31:24;24.27;;;4.72;;
51943;SDS011;37969;53.132;6.370;2024-03-23T05:33:53;28.20;;;4.50;;
51943;SDS011;37969;53.132;6.370;2024-03-23T05:36:21;24.70;;;5.22;;
51943;SDS011;37969;53.132;6.370;2024-03-23T05:38:49;27.90;;;4.53;;
51943;SDS011;37969;53.132;6.370;2024-03-23T05:41:15;29.05;;;4.90;;
51943;SDS011;37969;53.132;6.370;2024-03-23T05:43:45;31.15;;;5.38;;
51943;SDS011;37969;53.132;6.370;2024-03-23T05:46:13;28.88;;;4.68;;
51943;SDS011;37969;53.132;6.370;2024-03-23T05:48:41;27.20;;;4.05;;
51943;SDS011;37969;53.132;6.370;2024-03-23T05:51:07;23.67;;;5.07;;
51943;SDS011;37969;53.132;6.370;2024-03-23T05:53:34;24.73;;;4.03;;
51943;SDS011;37969;53.132;6.370;2024-03-23T05:56:02;27.70;;;4.30;;
51943;SDS011;37969;53.132;6.370;2024-03-23T05:58:29;16.15;;;3.67;;
51943;SDS011;37969;53.132;6.370;2024-03-23T06:00:57;14.23;;;2.90;;
51943;SDS011;37969;53.132;6.370;2024-03-23T06:03:26;19.35;;;3.15;;
51943;SDS011;37969;53.132;6.370;2024-03-23T06:05:55;9.13;;;2.30;;
51943;SDS011;37969;53.132;6.370;2024-03-23T06:08:23;15.13;;;2.65;;
51943;SDS011;37969;53.132;6.370;2024-03-23T06:10:50;15.73;;;2.65;;
51943;SDS011;37969;53.132;6.370;2024-03-23T06:13:20;14.10;;;3.05;;
51943;SDS011;37969;53.132;6.370;2024-03-23T06:15:54;14.55;;;2.90;;
51943;SDS011;37969;53.132;6.370;2024-03-23T06:18:22;12.23;;;2.42;;
51943;SDS011;37969;53.132;6.370;2024-03-23T06:20:48;11.23;;;2.47;;
51943;SDS011;37969;53.132;6.370;2024-03-23T06:23:17;22.50;;;2.90;;
51943;SDS011;37969;53.132;6.370;2024-03-23T06:25:46;23.33;;;3.10;;
51943;SDS011;37969;53.132;6.370;2024-03-23T06:28:15;10.20;;;2.28;;
51943;SDS011;37969;53.132;6.370;2024-03-23T06:30:41;11.23;;;2.45;;
51943;SDS011;37969;53.132;6.370;2024-03-23T06:33:07;11.98;;;3.00;;
51943;SDS011;37969;53.132;6.370;2024-03-23T06:35:33;14.60;;;3.45;;
51943;SDS011;37969;53.132;6.370;2024-03-23T06:38:01;18.15;;;2.92;;
51943;SDS011;37969;53.132;6.370;2024-03-23T06:40:28;9.60;;;2.40;;
51943;SDS011;37969;53.132;6.370;2024-03-23T06:42:54;15.40;;;3.03;;
51943;SDS011;37969;53.132;6.370;2024-03-23T06:45:21;15.63;;;2.92;;
51943;SDS011;37969;53.132;6.370;2024-03-23T06:47:49;10.57;;;2.35;;
51943;SDS011;37969;53.132;6.370;2024-03-23T06:50:20;12.05;;;2.92;;
51943;SDS011;37969;53.132;6.370;2024-03-23T06:52:47;18.35;;;2.88;;
51943;SDS011;37969;53.132;6.370;2024-03-23T06:55:18;10.63;;;2.78;;
51943;SDS011;37969;53.132;6.370;2024-03-23T06:57:46;18.92;;;3.28;;
51943;SDS011;37969;53.132;6.370;2024-03-23T07:00:14;11.80;;;2.80;;
51943;SDS011;37969;53.132;6.370;2024-03-23T07:02:41;10.52;;;2.10;;
51943;SDS011;37969;53.132;6.370;2024-03-23T07:05:10;16.27;;;2.33;;
51943;SDS011;37969;53.132;6.370;2024-03-23T07:07:38;5.47;;;1.60;;
51943;SDS011;37969;53.132;6.370;2024-03-23T07:10:05;8.85;;;1.70;;
51943;SDS011;37969;53.132;6.370;2024-03-23T07:12:33;4.20;;;1.42;;
51943;SDS011;37969;53.132;6.370;2024-03-23T07:15:00;6.82;;;1.67;;
51943;SDS011;37969;53.132;6.370;2024-03-23T07:17:27;10.40;;;1.33;;
51943;SDS011;37969;53.132;6.370;2024-03-23T07:19:54;5.85;;;1.17;;
51943;SDS011;37969;53.132;6.370;2024-03-23T07:22:21;2.65;;;0.98;;
51943;SDS011;37969;53.132;6.370;2024-03-23T07:24:49;5.03;;;1.35;;
51943;SDS011;37969;53.132;6.370;2024-03-23T07:27:17;7.53;;;1.60;;
51943;SDS011;37969;53.132;6.370;2024-03-23T07:29:43;7.13;;;2.08;;
51943;SDS011;37969;53.132;6.370;2024-03-23T07:32:10;8.05;;;1.42;;
51943;SDS011;37969;53.132;6.370;2024-03-23T07:34:37;6.88;;;1.63;;
51943;SDS011;37969;53.132;6.370;2024-03-23T07:37:04;5.93;;;1.58;;
51943;SDS011;37969;53.132;6.370;2024-03-23T07:39:31;8.02;;;1.75;;
51943;SDS011;37969;53.132;6.370;2024-03-23T07:41:59;8.27;;;1.88;;
51943;SDS011;37969;53.132;6.370;2024-03-23T07:44:27;10.45;;;1.90;;
51943;SDS011;37969;53.132;6.370;2024-03-23T07:46:53;10.02;;;2.55;;
51943;SDS011;37969;53.132;6.370;2024-03-23T07:49:20;9.80;;;2.03;;
51943;SDS011;37969;53.132;6.370;2024-03-23T07:51:49;12.02;;;2.10;;
51943;SDS011;37969;53.132;6.370;2024-03-23T07:54:16;15.00;;;2.53;;
51943;SDS011;37969;53.132;6.370;2024-03-23T07:56:42;18.35;;;4.05;;
51943;SDS011;37969;53.132;6.370;2024-03-23T07:59:11;15.68;;;2.88;;
51943;SDS011;37969;53.132;6.370;2024-03-23T08:01:37;32.50;;;15.10;;
51943;SDS011;37969;53.132;6.370;2024-03-23T08:04:05;8.30;;;2.58;;
51943;SDS011;37969;53.132;6.370;2024-03-23T08:06:34;9.73;;;2.83;;
51943;SDS011;37969;53.132;6.370;2024-03-23T08:09:01;11.27;;;2.70;;
51943;SDS011;37969;53.132;6.370;2024-03-23T08:11:29;15.15;;;3.88;;
51943;SDS011;37969;53.132;6.370;2024-03-23T08:14:01;15.95;;;3.47;;
51943;SDS011;37969;53.132;6.370;2024-03-23T08:16:29;23.05;;;5.22;;
51943;SDS011;37969;53.132;6.370;2024-03-23T08:18:59;14.23;;;3.05;;
51943;SDS011;37969;53.132;6.370;2024-03-23T08:21:25;11.98;;;3.75;;
51943;SDS011;37969;53.132;6.370;2024-03-23T08:23:51;17.35;;;3.25;;
51943;SDS011;37969;53.132;6.370;2024-03-23T08:26:21;15.00;;;4.30;;
51943;SDS011;37969;53.132;6.370;2024-03-23T08:28:47;19.20;;;4.43;;
51943;SDS011;37969;53.132;6.370;2024-03-23T08:31:16;19.10;;;3.03;;
51943;SDS011;37969;53.132;6.370;2024-03-23T08:33:44;14.10;;;2.70;;
51943;SDS011;37969;53.132;6.370;2024-03-23T08:36:12;18.00;;;3.05;;
51943;SDS011;37969;53.132;6.370;2024-03-23T08:38:40;13.75;;;3.08;;
51943;SDS011;37969;53.132;6.370;2024-03-23T08:41:08;15.45;;;2.75;;
51943;SDS011;37969;53.132;6.370;2024-03-23T08:43:37;18.42;;;4.15;;
51943;SDS011;37969;53.132;6.370;2024-03-23T08:46:11;13.73;;;3.65;;
51943;SDS011;37969;53.132;6.370;2024-03-23T08:48:43;19.45;;;3.17;;
51943;SDS011;37969;53.132;6.370;2024-03-23T08:51:14;21.38;;;6.35;;
51943;SDS011;37969;53.132;6.370;2024-03-23T08:53:41;15.43;;;3.47;;
51943;SDS011;37969;53.132;6.370;2024-03-23T08:56:09;17.75;;;4.55;;
51943;SDS011;37969;53.132;6.370;2024-03-23T08:58:38;20.25;;;7.28;;
51943;SDS011;37969;53.132;6.370;2024-03-23T09:01:06;16.10;;;3.70;;
51943;SDS011;37969;53.132;6.370;2024-03-23T09:03:32;18.17;;;3.78;;
51943;SDS011;37969;53.132;6.370;2024-03-23T09:06:02;13.85;;;3.03;;
51943;SDS011;37969;53.132;6.370;2024-03-23T09:08:28;14.88;;;2.88;;
51943;SDS011;37969;53.132;6.370;2024-03-23T09:10:56;18.63;;;2.80;;
51943;SDS011;37969;53.132;6.370;2024-03-23T09:13:23;17.17;;;3.53;;
51943;SDS011;37969;53.132;6.370;2024-03-23T09:15:52;21.77;;;4.55;;
51943;SDS011;37969;53.132;6.370;2024-03-23T09:18:23;19.00;;;3.78;;
51943;SDS011;37969;53.132;6.370;2024-03-23T09:20:52;16.88;;;3.22;;
51943;SDS011;37969;53.132;6.370;2024-03-23T09:23:20;11.48;;;2.88;;
51943;SDS011;37969;53.132;6.370;2024-03-23T09:25:46;13.65;;;3.55;;
51943;SDS011;37969;53.132;6.370;2024-03-23T09:28:13;13.60;;;2.53;;
51943;SDS011;37969;53.132;6.370;2024-03-23T09:30:41;5.93;;;1.95;;
51943;SDS011;37969;53.132;6.370;2024-03-23T09:33:09;15.63;;;2.80;;
51943;SDS011;37969;53.132;6.370;2024-03-23T09:35:39;16.27;;;3.25;;
51943;SDS011;37969;53.132;6.370;2024-03-23T09:38:07;41.60;;;18.23;;
51943;SDS011;37969;53.132;6.370;2024-03-23T09:40:34;14.15;;;7.97;;
51943;SDS011;37969;53.132;6.370;2024-03-23T09:43:02;11.75;;;4.28;;
51943;SDS011;37969;53.132;6.370;2024-03-23T09:45:28;13.43;;;3.22;;
51943;SDS011;37969;53.132;6.370;2024-03-23T09:47:57;14.60;;;3.78;;
51943;SDS011;37969;53.132;6.370;2024-03-23T09:50:24;22.48;;;9.23;;
51943;SDS011;37969;53.132;6.370;2024-03-23T09:52:50;12.88;;;2.88;;
51943;SDS011;37969;53.132;6.370;2024-03-23T09:55:17;15.38;;;3.63;;
51943;SDS011;37969;53.132;6.370;2024-03-23T09:57:43;16.27;;;3.25;;
51943;SDS011;37969;53.132;6.370;2024-03-23T10:00:11;16.92;;;3.63;;
51943;SDS011;37969;53.132;6.370;2024-03-23T10:02:37;16.73;;;4.10;;
51943;SDS011;37969;53.132;6.370;2024-03-23T10:05:04;13.85;;;3.40;;
51943;SDS011;37969;53.132;6.370;2024-03-23T10:07:32;13.02;;;2.92;;
51943;SDS011;37969;53.132;6.370;2024-03-23T10:10:09;14.73;;;2.90;;
51943;SDS011;37969;53.132;6.370;2024-03-23T10:12:39;19.98;;;3.13;;
51943;SDS011;37969;53.132;6.370;2024-03-23T10:15:18;17.35;;;3.80;;
51943;SDS011;37969;53.132;6.370;2024-03-23T10:17:44;15.30;;;2.97;;
51943;SDS011;37969;53.132;6.370;2024-03-23T10:20:13;18.23;;;2.63;;
51943;SDS011;37969;53.132;6.370;2024-03-23T10:22:40;16.10;;;3.30;;
51943;SDS011;37969;53.132;6.370;2024-03-23T10:25:09;10.55;;;2.20;;
51943;SDS011;37969;53.132;6.370;2024-03-23T10:27:38;11.60;;;2.38;;
51943;SDS011;37969;53.132;6.370;2024-03-23T10:30:08;8.45;;;1.42;;
51943;SDS011;37969;53.132;6.370;2024-03-23T10:32:36;15.70;;;2.35;;
51943;SDS011;37969;53.132;6.370;2024-03-23T10:35:19;17.77;;;5.25;;
51943;SDS011;37969;53.132;6.370;2024-03-23T10:37:47;14.15;;;2.95;;
51943;SDS011;37969;53.132;6.370;2024-03-23T10:40:15;17.10;;;4.20;;
51943;SDS011;37969;53.132;6.370;2024-03-23T10:42:43;17.65;;;3.63;;
51943;SDS011;37969;53.132;6.370;2024-03-23T10:45:10;19.23;;;3.40;;
51943;SDS011;37969;53.132;6.370;2024-03-23T10:47:40;16.95;;;5.53;;
51943;SDS011;37969;53.132;6.370;2024-03-23T10:50:07;12.45;;;2.38;;
51943;SDS011;37969;53.132;6.370;2024-03-23T10:52:34;12.02;;;3.72;;
51943;SDS011;37969;53.132;6.370;2024-03-23T10:55:04;13.32;;;4.85;;
51943;SDS011;37969;53.132;6.370;2024-03-23T10:57:34;10.25;;;1.92;;
51943;SDS011;37969;53.132;6.370;2024-03-23T11:00:04;8.32;;;1.92;;
51943;SDS011;37969;53.132;6.370;2024-03-23T11:02:31;16.52;;;4.28;;
51943;SDS011;37969;53.132;6.370;2024-03-23T11:05:00;8.10;;;2.17;;
51943;SDS011;37969;53.132;6.370;2024-03-23T11:07:32;9.20;;;2.38;;
51943;SDS011;37969;53.132;6.370;2024-03-23T11:10:00;11.82;;;2.40;;
51943;SDS011;37969;53.132;6.370;2024-03-23T11:12:28;12.20;;;2.45;;
51943;SDS011;37969;53.132;6.370;2024-03-23T11:15:04;11.77;;;2.63;;
51943;SDS011;37969;53.132;6.370;2024-03-23T11:17:31;10.75;;;3.10;;
51943;SDS011;37969;53.132;6.370;2024-03-23T11:19:58;17.27;;;3.17;;
51943;SDS011;37969;53.132;6.370;2024-03-23T11:22:42;25.80;;;3.22;;
51943;SDS011;37969;53.132;6.370;2024-03-23T11:25:15;11.00;;;2.13;;
51943;SDS011;37969;53.132;6.370;2024-03-23T11:27:44;7.38;;;2.13;;
51943;SDS011;37969;53.132;6.370;2024-03-23T11:30:12;12.98;;;2.45;;
51943;SDS011;37969;53.132;6.370;2024-03-23T11:32:38;8.93;;;2.03;;
51943;SDS011;37969;53.132;6.370;2024-03-23T11:35:07;11.73;;;3.63;;
51943;SDS011;37969;53.132;6.370;2024-03-23T11:37:36;13.52;;;3.05;;
51943;SDS011;37969;53.132;6.370;2024-03-23T11:40:19;15.43;;;3.90;;
51943;SDS011;37969;53.132;6.370;2024-03-23T11:42:46;16.13;;;2.70;;
51943;SDS011;37969;53.132;6.370;2024-03-23T11:45:13;28.38;;;9.55;;
51943;SDS011;37969;53.132;6.370;2024-03-23T11:47:39;16.80;;;3.10;;
51943;SDS011;37969;53.132;6.370;2024-03-23T11:50:05;5.78;;;2.00;;
51943;SDS011;37969;53.132;6.370;2024-03-23T11:52:34;9.95;;;2.05;;
51943;SDS011;37969;53.132;6.370;2024-03-23T11:55:03;10.32;;;2.08;;
51943;SDS011;37969;53.132;6.370;2024-03-23T11:57:33;10.43;;;2.20;;
51943;SDS011;37969;53.132;6.370;2024-03-23T11:59:59;12.55;;;2.38;;
51943;SDS011;37969;53.132;6.370;2024-03-23T12:02:25;12.00;;;2.60;;
51943;SDS011;37969;53.132;6.370;2024-03-23T12:04:52;10.10;;;1.77;;
51943;SDS011;37969;53.132;6.370;2024-03-23T12:07:19;8.07;;;2.03;;
51943;SDS011;37969;53.132;6.370;2024-03-23T12:10:02;12.18;;;1.83;;
51943;SDS011;37969;53.132;6.370;2024-03-23T12:12:29;35.10;;;12.63;;
51943;SDS011;37969;53.132;6.370;2024-03-23T12:15:03;9.03;;;2.33;;
51943;SDS011;37969;53.132;6.370;2024-03-23T12:17:30;9.15;;;2.03;;
51943;SDS011;37969;53.132;6.370;2024-03-23T12:20:00;8.10;;;2.10;;
51943;SDS011;37969;53.132;6.370;2024-03-23T12:22:26;5.53;;;1.40;;
51943;SDS011;37969;53.132;6.370;2024-03-23T12:24:54;11.38;;;5.10;;
51943;SDS011;37969;53.132;6.370;2024-03-23T12:27:22;23.02;;;9.50;;
51943;SDS011;37969;53.132;6.370;2024-03-23T12:29:49;5.70;;;2.08;;
51943;SDS011;37969;53.132;6.370;2024-03-23T12:32:15;14.40;;;5.97;;
51943;SDS011;37969;53.132;6.370;2024-03-23T12:34:44;10.50;;;1.80;;
51943;SDS011;37969;53.132;6.370;2024-03-23T12:37:10;17.85;;;6.80;;
51943;SDS011;37969;53.132;6.370;2024-03-23T12:39:37;18.52;;;6.88;;
51943;SDS011;37969;53.132;6.370;2024-03-23T12:42:07;12.50;;;4.95;;
51943;SDS011;37969;53.132;6.370;2024-03-23T12:44:35;15.48;;;4.32;;
51943;SDS011;37969;53.132;6.370;2024-03-23T12:47:04;13.75;;;3.67;;
51943;SDS011;37969;53.132;6.370;2024-03-23T12:49:30;6.22;;;1.77;;
51943;SDS011;37969;53.132;6.370;2024-03-23T12:51:57;9.35;;;4.32;;
51943;SDS011;37969;53.132;6.370;2024-03-23T12:54:25;8.48;;;4.10;;
51943;SDS011;37969;53.132;6.370;2024-03-23T12:56:51;6.32;;;2.38;;
51943;SDS011;37969;53.132;6.370;2024-03-23T12:59:18;6.60;;;2.80;;
51943;SDS011;37969;53.132;6.370;2024-03-23T13:01:45;9.27;;;3.03;;
51943;SDS011;37969;53.132;6.370;2024-03-23T13:04:12;7.00;;;1.60;;
51943;SDS011;37969;53.132;6.370;2024-03-23T13:06:39;8.63;;;2.22;;
51943;SDS011;37969;53.132;6.370;2024-03-23T13:09:05;5.35;;;1.73;;
51943;SDS011;37969;53.132;6.370;2024-03-23T13:11:32;7.35;;;2.05;;
51943;SDS011;37969;53.132;6.370;2024-03-23T13:13:59;11.27;;;3.90;;
51943;SDS011;37969;53.132;6.370;2024-03-23T13:16:25;14.57;;;3.53;;
51943;SDS011;37969;53.132;6.370;2024-03-23T13:18:51;17.83;;;3.83;;
51943;SDS011;37969;53.132;6.370;2024-03-23T13:21:19;14.00;;;3.47;;
51943;SDS011;37969;53.132;6.370;2024-03-23T13:23:48;21.63;;;4.68;;
51943;SDS011;37969;53.132;6.370;2024-03-23T13:26:16;20.23;;;4.07;;
51943;SDS011;37969;53.132;6.370;2024-03-23T13:28:42;25.10;;;4.93;;
51943;SDS011;37969;53.132;6.370;2024-03-23T13:31:09;15.73;;;4.35;;
51943;SDS011;37969;53.132;6.370;2024-03-23T13:33:36;12.85;;;4.07;;
51943;SDS011;37969;53.132;6.370;2024-03-23T13:36:02;16.33;;;2.70;;
51943;SDS011;37969;53.132;6.370;2024-03-23T13:38:29;15.38;;;3.83;;
51943;SDS011;37969;53.132;6.370;2024-03-23T13:40:57;20.67;;;3.92;;
51943;SDS011;37969;53.132;6.370;2024-03-23T13:43:29;13.30;;;2.88;;
51943;SDS011;37969;53.132;6.370;2024-03-23T13:45:59;12.38;;;3.03;;
51943;SDS011;37969;53.132;6.370;2024-03-23T13:48:26;11.95;;;2.70;;
51943;SDS011;37969;53.132;6.370;2024-03-23T13:51:01;15.85;;;2.67;;
51943;SDS011;37969;53.132;6.370;2024-03-23T13:53:28;11.65;;;2.83;;
51943;SDS011;37969;53.132;6.370;2024-03-23T13:55:54;10.43;;;2.42;;
51943;SDS011;37969;53.132;6.370;2024-03-23T13:58:21;17.90;;;2.90;;
51943;SDS011;37969;53.132;6.370;2024-03-23T14:00:50;15.63;;;3.65;;
51943;SDS011;37969;53.132;6.370;2024-03-23T14:03:19;9.63;;;2.10;;
51943;SDS011;37969;53.132;6.370;2024-03-23T14:05:47;13.52;;;2.45;;
51943;SDS011;37969;53.132;6.370;2024-03-23T14:08:13;11.95;;;2.50;;
51943;SDS011;37969;53.132;6.370;2024-03-23T14:10:40;14.75;;;3.08;;
51943;SDS011;37969;53.132;6.370;2024-03-23T14:13:08;15.60;;;2.30;;
51943;SDS011;37969;53.132;6.370;2024-03-23T14:15:35;14.13;;;2.63;;
51943;SDS011;37969;53.132;6.370;2024-03-23T14:18:04;15.50;;;2.13;;
51943;SDS011;37969;53.132;6.370;2024-03-23T14:20:32;11.32;;;3.00;;
51943;SDS011;37969;53.132;6.370;2024-03-23T14:23:01;10.88;;;3.30;;
51943;SDS011;37969;53.132;6.370;2024-03-23T14:25:28;14.27;;;3.00;;
51943;SDS011;37969;53.132;6.370;2024-03-23T14:27:55;16.00;;;3.10;;
51943;SDS011;37969;53.132;6.370;2024-03-23T14:30:28;18.63;;;3.65;;
51943;SDS011;37969;53.132;6.370;2024-03-23T14:32:56;13.45;;;3.75;;
51943;SDS011;37969;53.132;6.370;2024-03-23T14:35:24;18.88;;;4.15;;
51943;SDS011;37969;53.132;6.370;2024-03-23T14:37:51;19.70;;;4.20;;
51943;SDS011;37969;53.132;6.370;2024-03-23T14:40:25;15.68;;;4.10;;
51943;SDS011;37969;53.132;6.370;2024-03-23T14:42:52;17.52;;;4.00;;
51943;SDS011;37969;53.132;6.370;2024-03-23T14:45:20;19.58;;;4.88;;
51943;SDS011;37969;53.132;6.370;2024-03-23T14:47:50;21.23;;;4.78;;
51943;SDS011;37969;53.132;6.370;2024-03-23T14:50:18;15.48;;;4.93;;
51943;SDS011;37969;53.132;6.370;2024-03-23T14:52:46;12.48;;;4.68;;
51943;SDS011;37969;53.132;6.370;2024-03-23T14:55:13;15.32;;;5.75;;
51943;SDS011;37969;53.132;6.370;2024-03-23T14:57:44;9.05;;;2.10;;
51943;SDS011;37969;53.132;6.370;2024-03-23T15:00:12;15.73;;;6.68;;
51943;SDS011;37969;53.132;6.370;2024-03-23T15:02:40;9.57;;;2.83;;
51943;SDS011;37969;53.132;6.370;2024-03-23T15:05:07;10.13;;;3.22;;
51943;SDS011;37969;53.132;6.370;2024-03-23T15:07:37;17.33;;;4.97;;
51943;SDS011;37969;53.132;6.370;2024-03-23T15:10:05;17.88;;;3.10;;
51943;SDS011;37969;53.132;6.370;2024-03-23T15:12:33;20.05;;;7.30;;
51943;SDS011;37969;53.132;6.370;2024-03-23T15:15:01;13.20;;;3.08;;
51943;SDS011;37969;53.132;6.370;2024-03-23T15:17:27;18.77;;;7.95;;
51943;SDS011;37969;53.132;6.370;2024-03-23T15:19:59;26.95;;;10.15;;
51943;SDS011;37969;53.132;6.370;2024-03-23T15:22:26;23.75;;;6.22;;
51943;SDS011;37969;53.132;6.370;2024-03-23T15:24:53;20.73;;;4.60;;
51943;SDS011;37969;53.132;6.370;2024-03-23T15:27:20;11.70;;;4.82;;
51943;SDS011;37969;53.132;6.370;2024-03-23T15:29:51;19.73;;;3.97;;
51943;SDS011;37969;53.132;6.370;2024-03-23T15:32:17;16.55;;;4.75;;
51943;SDS011;37969;53.132;6.370;2024-03-23T15:34:43;17.20;;;5.20;;